Time;durP1;ratioP1;P1;durP2;ratioP2;P2;SDS_P1;SDS_P2;PMS_P1;PMS_P2;Temp;Humidity;BMP_temperature;BMP_pressure;BME280_temperature;BME280_humidity;BME280_pressure;Samples;Min_cycle;Max_cycle;Signal;HPM_P1;HPM_P2
2021/09/20 00:00:07;;;;;;;1.97;1.13;;;;;;;12.88;86.08;101448.19;5034911;28;20490;-68
2021/09/20 00:02:34;;;;;;;12.90;1.70;;;;;;;12.81;85.64;101453.19;5034510;28;20962;-68
2021/09/20 00:05:02;;;;;;;1.23;0.97;;;;;;;12.80;84.58;101453.50;5034756;28;20478;-69
2021/09/20 00:07:28;;;;;;;1.10;0.83;;;;;;;12.79;84.44;101452.69;5034807;28;20450;-68
2021/09/20 00:09:55;;;;;;;3.70;1.60;;;;;;;12.74;85.74;101460.88;5034738;28;20806;-68
2021/09/20 00:12:21;;;;;;;2.23;1.30;;;;;;;12.81;87.09;101450.47;5034668;28;20450;-68
2021/09/20 00:14:48;;;;;;;2.27;1.07;;;;;;;12.80;88.22;101454.28;5034550;28;20471;-69
2021/09/20 00:17:14;;;;;;;3.30;1.27;;;;;;;12.81;87.60;101455.91;5034615;28;20447;-69
2021/09/20 00:19:40;;;;;;;0.60;0.60;;;;;;;12.84;87.95;101452.59;5034451;28;20505;-67
2021/09/20 00:22:09;;;;;;;1.83;1.10;;;;;;;12.89;88.00;101451.72;5034257;28;20438;-72
2021/09/20 00:24:35;;;;;;;2.33;1.27;;;;;;;12.92;88.38;101455.75;5034540;28;20517;-72
2021/09/20 00:27:02;;;;;;;2.80;1.10;;;;;;;12.93;88.19;101457.38;5034296;28;20481;-73
2021/09/20 00:29:28;;;;;;;2.20;1.50;;;;;;;12.87;88.65;101449.28;5034400;28;20442;-70
2021/09/20 00:31:55;;;;;;;2.37;1.40;;;;;;;12.91;88.42;101448.69;5034289;28;20439;-68
2021/09/20 00:34:21;;;;;;;1.13;1.00;;;;;;;12.98;88.59;101454.56;5034058;28;20443;-68
2021/09/20 00:36:47;;;;;;;2.80;1.17;;;;;;;12.98;88.75;101449.94;5034151;28;20454;-67
2021/09/20 00:39:15;;;;;;;1.10;0.70;;;;;;;12.96;88.43;101456.78;5033795;28;20447;-68
2021/09/20 00:41:42;;;;;;;1.53;1.27;;;;;;;12.95;86.87;101460.59;5034134;28;20443;-68
2021/09/20 00:44:08;;;;;;;1.33;1.10;;;;;;;12.91;85.66;101454.13;5034124;28;20454;-68
2021/09/20 00:46:35;;;;;;;2.77;1.27;;;;;;;12.84;85.62;101459.97;5034005;28;20455;-69
2021/09/20 00:49:01;;;;;;;9.73;2.43;;;;;;;12.75;85.21;101457.09;5033974;28;20447;-69
2021/09/20 00:51:28;;;;;;;1.90;1.10;;;;;;;12.74;86.65;101460.88;5033940;28;20443;-68
2021/09/20 00:53:54;;;;;;;1.33;0.90;;;;;;;12.73;88.06;101456.56;5033597;28;20451;-68
2021/09/20 00:56:22;;;;;;;2.60;1.37;;;;;;;12.72;88.68;101451.44;5033508;28;21006;-68
2021/09/20 00:58:49;;;;;;;1.57;0.90;;;;;;;12.72;89.26;101457.66;5033791;28;20450;-68
2021/09/20 01:01:16;;;;;;;2.73;1.43;;;;;;;12.79;89.40;101454.56;5033400;28;21019;-68
2021/09/20 01:03:42;;;;;;;1.20;0.83;;;;;;;12.74;89.81;101449.22;5033870;28;20855;-68
2021/09/20 01:06:09;;;;;;;11.00;1.60;;;;;;;12.73;89.95;101453.84;5033648;28;20471;-68
2021/09/20 01:08:35;;;;;;;1.30;1.20;;;;;;;12.73;89.89;101448.41;5033642;28;20450;-69
2021/09/20 01:11:02;;;;;;;1.30;1.17;;;;;;;12.75;90.67;101454.38;5033688;28;20446;-68
2021/09/20 01:13:30;;;;;;;2.63;1.57;;;;;;;12.74;90.95;101457.38;5033683;28;20450;-68
2021/09/20 01:15:56;;;;;;;1.10;0.90;;;;;;;12.78;90.25;101448.31;5033203;28;21021;-68
2021/09/20 01:18:23;;;;;;;2.97;1.33;;;;;;;12.79;90.00;101451.84;5033521;28;20446;-68
2021/09/20 01:20:49;;;;;;;1.30;0.83;;;;;;;12.78;89.64;101458.41;5033387;28;20537;-68
2021/09/20 01:23:18;;;;;;;3.17;1.60;;;;;;;12.74;90.82;101466.31;5033459;28;20439;-68
2021/09/20 01:25:45;;;;;;;4.93;1.80;;;;;;;12.77;90.15;101459.50;5033308;28;20463;-69
2021/09/20 01:28:11;;;;;;;2.10;1.57;;;;;;;12.76;89.50;101458.69;5033075;28;20470;-68
2021/09/20 01:30:38;;;;;;;3.63;1.10;;;;;;;12.75;90.12;101459.81;5033395;28;20435;-70
2021/09/20 01:33:04;;;;;;;2.33;1.30;;;;;;;12.78;90.30;101459.19;5033333;28;20446;-69
2021/09/20 01:35:31;;;;;;;0.97;0.80;;;;;;;12.75;90.75;101467.97;5032934;28;20579;-68
2021/09/20 01:37:58;;;;;;;1.00;0.90;;;;;;;12.71;89.87;101471.56;5032971;28;20967;-68
2021/09/20 01:40:27;;;;;;;3.20;1.23;;;;;;;12.71;88.71;101472.38;5033153;28;20493;-68
2021/09/20 01:42:53;;;;;;;4.07;1.70;;;;;;;12.66;87.88;101469.72;5033175;28;20451;-68
2021/09/20 01:45:20;;;;;;;1.37;1.17;;;;;;;12.67;87.60;101468.63;5032695;28;20458;-68
2021/09/20 01:47:47;;;;;;;4.20;1.17;;;;;;;12.54;88.06;101472.88;5033132;28;20475;-68
2021/09/20 01:50:14;;;;;;;2.80;1.40;;;;;;;12.59;88.19;101466.56;5033292;28;20446;-68
2021/09/20 01:52:41;;;;;;;3.00;1.30;;;;;;;12.68;89.40;101466.72;5032827;28;20955;-68
2021/09/20 01:55:09;;;;;;;2.00;1.37;;;;;;;12.73;89.95;101463.91;5033053;28;20474;-68
2021/09/20 01:57:37;;;;;;;2.13;1.03;;;;;;;12.73;90.15;101469.34;5033035;28;20447;-68
2021/09/20 02:00:05;;;;;;;2.20;1.23;;;;;;;12.73;89.77;101456.56;5032972;28;20487;-68
2021/09/20 02:02:31;;;;;;;2.27;1.10;;;;;;;12.77;90.34;101470.38;5033027;28;20439;-68
2021/09/20 02:04:58;;;;;;;1.20;1.10;;;;;;;12.72;90.41;101463.09;5032928;28;20470;-68
2021/09/20 02:07:24;;;;;;;2.00;1.20;;;;;;;12.74;89.92;101477.19;5032964;28;20447;-69
2021/09/20 02:09:50;;;;;;;3.17;1.47;;;;;;;12.69;89.63;101468.31;5032568;28;20466;-68
2021/09/20 02:12:17;;;;;;;1.30;0.80;;;;;;;12.63;90.26;101468.38;5032947;28;20447;-70
2021/09/20 02:14:45;;;;;;;3.17;1.27;;;;;;;12.67;90.34;101465.09;5032612;28;20498;-70
2021/09/20 02:17:11;;;;;;;2.80;1.47;;;;;;;12.69;90.66;101462.88;5032916;28;20443;-69
2021/09/20 02:19:39;;;;;;;1.87;1.40;;;;;;;12.71;90.58;101456.06;5032684;28;20443;-70
2021/09/20 02:22:05;;;;;;;2.87;1.40;;;;;;;12.73;90.25;101463.91;5032542;28;20971;-69
2021/09/20 02:24:32;;;;;;;1.70;1.43;;;;;;;12.75;90.37;101458.97;5032797;28;20480;-69
2021/09/20 02:26:59;;;;;;;2.23;1.33;;;;;;;12.77;89.96;101465.75;5032655;28;20438;-69
2021/09/20 02:29:26;;;;;;;2.27;1.23;;;;;;;12.76;89.80;101464.13;5033104;28;20458;-69
2021/09/20 02:31:53;;;;;;;2.10;1.20;;;;;;;12.75;90.42;101459.81;5032374;28;20952;-69
2021/09/20 02:34:20;;;;;;;1.13;0.97;;;;;;;12.72;89.44;101463.09;5032817;28;20442;-69
2021/09/20 02:36:47;;;;;;;1.63;1.10;;;;;;;12.73;89.40;101458.47;5032774;28;20483;-69
2021/09/20 02:39:13;;;;;;;2.30;1.13;;;;;;;12.72;89.05;101468.53;5032699;28;20447;-69
2021/09/20 02:41:40;;;;;;;2.30;1.30;;;;;;;12.66;87.49;101469.72;5032658;28;20490;-69
2021/09/20 02:44:07;;;;;;;1.80;1.23;;;;;;;12.64;88.22;101466.47;5032639;28;20447;-69
2021/09/20 02:46:34;;;;;;;1.17;0.83;;;;;;;12.63;89.33;101470.31;5032561;28;20458;-69
2021/09/20 02:49:01;;;;;;;1.23;1.13;;;;;;;12.67;89.84;101465.91;5032261;28;20850;-70
2021/09/20 02:51:28;;;;;;;2.33;1.53;;;;;;;12.62;88.10;101464.06;5032590;28;20439;-72
2021/09/20 02:53:54;;;;;;;1.80;1.10;;;;;;;12.53;88.44;101467.72;5032519;28;20454;-70
2021/09/20 02:56:21;;;;;;;2.17;1.40;;;;;;;12.59;90.25;101463.84;5032497;28;20458;-70
2021/09/20 02:58:47;;;;;;;6.53;3.13;;;;;;;12.59;90.81;101451.06;5034619;28;20443;-70
2021/09/20 03:01:14;;;;;;;3.30;1.57;;;;;;;12.65;91.34;101459.94;5035983;28;20483;-69
2021/09/20 03:03:40;;;;;;;5.97;2.17;;;;;;;12.59;91.81;101458.41;5036056;28;20447;-69
2021/09/20 03:06:08;;;;;;;1.40;1.20;;;;;;;12.59;92.38;101458.41;5035578;28;20481;-70
2021/09/20 03:08:34;;;;;;;1.70;1.00;;;;;;;12.58;92.19;101463.03;5035943;28;20443;-71
2021/09/20 03:11:01;;;;;;;1.50;1.17;;;;;;;12.55;92.00;101466.31;5036144;28;20435;-70
2021/09/20 03:13:27;;;;;;;4.63;1.37;;;;;;;12.58;92.28;101475.81;5035849;28;20447;-70
2021/09/20 03:15:54;;;;;;;2.33;1.17;;;;;;;12.63;91.24;101470.31;5035760;28;20470;-69
2021/09/20 03:18:20;;;;;;;2.17;1.27;;;;;;;12.61;90.87;101456.97;5035476;28;20853;-69
2021/09/20 03:20:47;;;;;;;1.40;1.03;;;;;;;12.57;91.52;101476.88;5035660;28;20494;-69
2021/09/20 03:23:14;;;;;;;10.43;2.53;;;;;;;12.58;91.77;101470.38;5035640;28;20446;-68
2021/09/20 03:25:41;;;;;;;1.63;0.73;;;;;;;12.57;91.25;101479.59;5035532;28;20463;-69
2021/09/20 03:28:07;;;;;;;2.83;1.00;;;;;;;12.58;91.58;101478.53;5035271;28;20466;-69
2021/09/20 03:30:34;;;;;;;1.40;0.97;;;;;;;12.56;92.48;101488.88;5035502;28;20439;-69
2021/09/20 03:33:00;;;;;;;2.20;0.93;;;;;;;12.58;92.68;101486.69;5035445;28;20450;-69
2021/09/20 03:35:27;;;;;;;2.00;1.60;;;;;;;12.64;92.11;101480.06;5035304;28;20478;-69
2021/09/20 03:37:53;;;;;;;1.37;1.17;;;;;;;12.59;90.16;101491.00;5035334;28;20501;-70
2021/09/20 03:40:21;;;;;;;1.63;1.03;;;;;;;12.55;89.42;101488.06;5034984;28;20483;-70
2021/09/20 03:42:48;;;;;;;1.23;0.83;;;;;;;12.58;89.84;101487.50;5035300;28;20447;-67
2021/09/20 03:45:15;;;;;;;0.83;0.77;;;;;;;12.54;89.60;101488.38;5035180;28;20466;-69
2021/09/20 03:47:42;;;;;;;3.87;1.73;;;;;;;12.49;90.10;101483.00;5034949;28;20474;-68
2021/09/20 03:50:11;;;;;;;2.13;1.33;;;;;;;12.49;90.34;101488.44;5034889;28;20431;-69
2021/09/20 03:52:38;;;;;;;2.10;1.07;;;;;;;12.53;91.27;101500.34;5034763;28;20929;-70
2021/09/20 03:55:05;;;;;;;1.53;1.10;;;;;;;12.56;91.95;101494.31;5034979;28;20475;-68
2021/09/20 03:57:33;;;;;;;3.67;1.17;;;;;;;12.58;92.19;101501.06;5035003;28;20458;-70
2021/09/20 04:00:00;;;;;;;1.63;1.10;;;;;;;12.53;92.14;101490.28;5036319;28;20447;-70
2021/09/20 04:02:26;;;;;;;4.20;2.60;;;;;;;12.56;92.27;101494.31;5034866;28;20490;-69
2021/09/20 04:04:53;;;;;;;2.30;1.20;;;;;;;12.52;92.74;101493.28;5034776;28;20463;-69
2021/09/20 04:07:19;;;;;;;2.10;1.30;;;;;;;12.53;92.81;101494.91;5034939;28;20451;-70
2021/09/20 04:09:46;;;;;;;3.10;1.43;;;;;;;12.56;92.88;101497.81;5034389;28;20455;-72
2021/09/20 04:12:13;;;;;;;1.60;0.97;;;;;;;12.57;92.92;101499.47;5034724;28;20450;-69
2021/09/20 04:14:41;;;;;;;1.33;1.20;;;;;;;12.54;93.17;101500.03;5034615;28;20450;-69
2021/09/20 04:17:08;;;;;;;1.07;0.90;;;;;;;12.59;92.04;101502.69;5034667;28;20447;-69
2021/09/20 04:19:35;;;;;;;3.13;1.57;;;;;;;12.55;91.43;101503.56;5034567;28;20481;-70
2021/09/20 04:22:03;;;;;;;1.67;1.37;;;;;;;12.52;92.28;101493.28;5034394;28;20482;-69
2021/09/20 04:24:30;;;;;;;1.30;0.90;;;;;;;12.51;92.91;101507.97;5034431;28;20443;-70
2021/09/20 04:26:56;;;;;;;2.30;1.47;;;;;;;12.50;93.15;101512.59;5034315;28;20459;-70
2021/09/20 04:29:23;;;;;;;5.23;1.87;;;;;;;12.54;93.09;101516.34;5034369;28;20446;-70
2021/09/20 04:31:50;;;;;;;2.00;1.57;;;;;;;12.59;93.14;101518.19;5034373;28;20443;-68
2021/09/20 04:34:17;;;;;;;2.27;1.80;;;;;;;12.50;91.57;101522.66;5034375;28;20442;-69
2021/09/20 04:36:44;;;;;;;8.90;1.23;;;;;;;12.46;91.06;101521.63;5034181;28;20876;-70
2021/09/20 04:39:10;;;;;;;1.03;0.90;;;;;;;12.49;91.86;101512.91;5034231;28;20439;-69
2021/09/20 04:41:39;;;;;;;1.50;0.93;;;;;;;12.43;91.99;101524.91;5034095;28;20486;-70
2021/09/20 04:44:05;;;;;;;1.47;0.97;;;;;;;12.40;91.72;101530.94;5034126;28;20533;-68
2021/09/20 04:46:32;;;;;;;3.60;1.17;;;;;;;12.42;92.03;101534.16;5033952;28;20463;-71
2021/09/20 04:48:59;;;;;;;1.10;0.80;;;;;;;12.42;92.92;101536.88;5033719;28;20447;-69
2021/09/20 04:51:26;;;;;;;3.30;1.60;;;;;;;12.43;93.13;101538.50;5034137;28;20451;-69
2021/09/20 04:53:52;;;;;;;1.17;0.93;;;;;;;12.42;93.17;101531.44;5033937;28;20443;-70
2021/09/20 04:56:19;;;;;;;3.67;1.27;;;;;;;12.43;93.63;101533.06;5033927;28;20459;-69
2021/09/20 04:58:45;;;;;;;2.40;1.30;;;;;;;12.40;93.87;101531.75;5033829;28;20451;-70
2021/09/20 05:01:11;;;;;;;4.43;1.63;;;;;;;12.42;94.16;101540.41;5033662;28;20864;-69
2021/09/20 05:03:38;;;;;;;1.83;1.10;;;;;;;12.43;94.12;101542.00;5033440;28;20962;-71
2021/09/20 05:06:06;;;;;;;1.40;0.83;;;;;;;12.47;94.17;101536.81;5033387;28;20467;-71
2021/09/20 05:08:33;;;;;;;1.67;1.00;;;;;;;12.51;94.23;101535.94;5033409;28;20435;-71
2021/09/20 05:10:59;;;;;;;1.67;1.40;;;;;;;12.54;93.98;101538.09;5033423;28;20917;-73
2021/09/20 05:13:26;;;;;;;4.73;1.30;;;;;;;12.57;93.94;101533.97;5033711;28;20455;-69
2021/09/20 05:15:52;;;;;;;2.10;1.53;;;;;;;12.55;94.02;101534.25;5033167;28;20988;-71
2021/09/20 05:18:19;;;;;;;3.07;1.43;;;;;;;12.53;94.30;101535.66;5033524;28;20447;-70
2021/09/20 05:20:45;;;;;;;1.07;0.97;;;;;;;12.57;94.22;101533.97;5032452;28;20447;-71
2021/09/20 05:23:13;;;;;;;2.07;1.27;;;;;;;12.62;94.89;101533.94;5033200;28;20952;-71
2021/09/20 05:25:39;;;;;;;12.07;1.50;;;;;;;12.60;94.55;101536.91;5033368;28;20451;-72
2021/09/20 05:28:06;;;;;;;1.80;1.27;;;;;;;12.57;95.39;101548.38;5032968;28;20948;-71
2021/09/20 05:30:32;;;;;;;1.90;1.43;;;;;;;12.66;95.37;101545.00;5033388;28;20446;-70
2021/09/20 05:32:59;;;;;;;1.40;1.10;;;;;;;12.71;95.16;101543.06;5033327;28;20447;-72
2021/09/20 05:35:26;;;;;;;1.00;0.90;;;;;;;12.70;94.41;101556.91;5033234;28;20477;-72
2021/09/20 05:37:53;;;;;;;2.00;1.23;;;;;;;12.68;94.23;101557.22;5033312;28;20439;-70
2021/09/20 05:40:22;;;;;;;1.03;1.00;;;;;;;12.69;94.73;101561.53;5032989;28;20982;-72
2021/09/20 05:42:48;;;;;;;2.53;1.23;;;;;;;12.73;94.33;101559.88;5033206;28;20487;-70
2021/09/20 05:45:16;;;;;;;2.00;1.13;;;;;;;12.73;93.91;101564.50;5033127;28;20475;-72
2021/09/20 05:47:42;;;;;;;1.77;1.07;;;;;;;12.69;95.05;101564.25;5033177;28;20450;-72
2021/09/20 05:50:10;;;;;;;1.43;1.07;;;;;;;12.72;95.99;101562.88;5033129;28;20443;-72
2021/09/20 05:52:37;;;;;;;3.30;1.30;;;;;;;12.77;96.31;101563.63;5033248;28;20439;-72
2021/09/20 05:55:04;;;;;;;1.83;1.40;;;;;;;12.83;96.86;101562.44;5032682;28;20463;-73
2021/09/20 05:57:32;;;;;;;2.30;1.40;;;;;;;12.78;97.08;101561.72;5033099;28;20443;-72
2021/09/20 05:59:58;;;;;;;0.70;0.67;;;;;;;12.84;97.05;101564.09;5032970;28;20443;-72
2021/09/20 06:02:24;;;;;;;1.27;1.17;;;;;;;12.84;95.53;101571.44;5033075;28;20534;-72
2021/09/20 06:04:51;;;;;;;3.00;1.50;;;;;;;12.83;95.21;101567.88;5032945;28;20824;-71
2021/09/20 06:07:17;;;;;;;3.57;1.50;;;;;;;12.85;95.08;101573.03;5032999;28;20443;-72
2021/09/20 06:09:44;;;;;;;1.17;1.07;;;;;;;12.90;94.07;101572.16;5032744;28;20443;-72
2021/09/20 06:12:10;;;;;;;2.70;1.10;;;;;;;12.86;94.62;101563.78;5032958;28;20789;-71
2021/09/20 06:14:38;;;;;;;0.93;0.93;;;;;;;12.83;94.04;101565.16;5032804;28;20443;-71
2021/09/20 06:17:05;;;;;;;2.40;1.10;;;;;;;12.84;95.08;101569.53;5032876;28;20454;-73
2021/09/20 06:19:31;;;;;;;2.43;1.13;;;;;;;12.82;94.50;101560.84;5032856;28;20840;-72
2021/09/20 06:21:58;;;;;;;3.03;1.27;;;;;;;12.88;93.06;101570.56;5032883;28;20486;-71
2021/09/20 06:24:24;;;;;;;5.87;0.80;;;;;;;12.86;92.14;101567.31;5032752;28;20455;-72
2021/09/20 06:26:51;;;;;;;11.63;1.57;;;;;;;12.91;91.54;101565.63;5032893;28;20451;-71
2021/09/20 06:29:17;;;;;;;1.13;1.03;;;;;;;12.96;90.98;101573.72;5032376;28;20463;-72
2021/09/20 06:31:45;;;;;;;1.83;1.30;;;;;;;13.01;90.54;101573.63;5033327;28;20815;-72
2021/09/20 06:34:11;;;;;;;3.80;1.30;;;;;;;13.03;91.56;101568.72;5036234;28;20815;-72
2021/09/20 06:36:39;;;;;;;1.27;0.80;;;;;;;13.08;92.77;101568.66;5036455;28;20463;-72
2021/09/20 06:39:06;;;;;;;1.50;0.80;;;;;;;13.19;92.41;101574.75;5036569;28;20443;-71
2021/09/20 06:41:34;;;;;;;2.80;1.50;;;;;;;13.26;92.82;101576.03;5036035;28;20557;-72
2021/09/20 06:44:02;;;;;;;2.67;1.77;;;;;;;13.28;93.26;101576.56;5036442;28;20462;-71
2021/09/20 06:46:30;;;;;;;2.17;1.20;;;;;;;13.31;91.89;101572.44;5036413;28;20467;-70
2021/09/20 06:48:58;;;;;;;1.80;1.40;;;;;;;13.31;90.35;101581.41;5036404;28;20446;-75
2021/09/20 06:51:24;;;;;;;1.60;1.17;;;;;;;13.29;88.99;101580.91;5036138;28;20443;-73
2021/09/20 06:53:51;;;;;;;1.50;0.93;;;;;;;13.30;89.50;101576.25;5036454;28;20451;-73
2021/09/20 06:56:18;;;;;;;0.80;0.80;;;;;;;13.35;90.20;101574.25;5035808;28;20979;-69
2021/09/20 06:58:44;;;;;;;6.53;2.40;;;;;;;13.37;90.89;101579.44;5035901;28;20937;-70
2021/09/20 07:01:11;;;;;;;2.53;1.67;;;;;;;13.43;90.36;101588.31;5036049;28;20449;-69
2021/09/20 07:03:37;;;;;;;1.53;1.00;;;;;;;13.48;90.75;101583.59;5036044;28;20450;-70
2021/09/20 07:06:06;;;;;;;3.53;1.40;;;;;;;13.55;89.67;101581.31;5036162;28;20463;-71
2021/09/20 07:08:32;;;;;;;1.20;1.07;;;;;;;13.53;89.50;101585.44;5035961;28;20442;-70
2021/09/20 07:10:59;;;;;;;2.53;1.00;;;;;;;13.58;88.85;101585.34;5035924;28;20455;-67
2021/09/20 07:13:26;;;;;;;2.33;1.33;;;;;;;13.50;86.89;101583.28;5035506;28;20951;-71
2021/09/20 07:15:53;;;;;;;1.93;1.30;;;;;;;13.50;86.19;101596.91;5035754;28;20451;-67
2021/09/20 07:18:19;;;;;;;1.80;1.70;;;;;;;13.53;86.96;101590.88;5035734;28;20459;-68
2021/09/20 07:20:46;;;;;;;1.70;1.33;;;;;;;13.54;89.68;101592.50;5035702;28;20451;-68
2021/09/20 07:23:14;;;;;;;1.17;1.07;;;;;;;13.51;88.98;101599.34;5035717;28;20533;-68
2021/09/20 07:25:41;;;;;;;13.97;1.80;;;;;;;13.57;88.80;101603.59;5035614;28;20865;-68
2021/09/20 07:28:07;;;;;;;2.17;1.67;;;;;;;13.60;88.87;101596.75;5035136;28;20968;-68
2021/09/20 07:30:34;;;;;;;2.30;1.40;;;;;;;13.62;89.70;101603.50;5035528;28;20435;-68
2021/09/20 07:33:00;;;;;;;4.73;2.17;;;;;;;13.66;90.15;101603.75;5035474;28;20447;-67
2021/09/20 07:35:27;;;;;;;3.70;1.40;;;;;;;13.61;91.20;101604.63;5035393;28;20479;-68
2021/09/20 07:37:56;;;;;;;2.70;0.80;;;;;;;13.69;91.63;101611.31;5035367;28;20497;-68
2021/09/20 07:40:25;;;;;;;1.50;1.13;;;;;;;13.71;91.67;101614.53;5035425;28;20447;-67
2021/09/20 07:42:53;;;;;;;2.90;1.33;;;;;;;13.75;91.37;101614.75;5034894;28;20996;-67
2021/09/20 07:45:20;;;;;;;2.80;1.30;;;;;;;13.82;90.21;101615.22;5034523;28;20462;-68
2021/09/20 07:47:46;;;;;;;2.73;1.90;;;;;;;13.87;89.57;101621.38;5035166;28;20903;-69
2021/09/20 07:50:15;;;;;;;3.37;1.80;;;;;;;13.87;89.61;101623.28;5035202;28;20459;-70
2021/09/20 07:52:42;;;;;;;2.00;1.37;;;;;;;13.98;89.70;101623.91;5035241;28;20475;-70
2021/09/20 07:55:09;;;;;;;1.47;1.13;;;;;;;13.97;87.29;101622.31;5034741;28;20467;-69
2021/09/20 07:57:37;;;;;;;2.70;1.40;;;;;;;14.02;85.81;101625.75;5035060;28;20659;-69
2021/09/20 08:00:06;;;;;;;2.30;1.20;;;;;;;14.01;84.55;101623.31;5035002;28;20438;-70
2021/09/20 08:02:32;;;;;;;2.00;0.93;;;;;;;14.02;84.91;101624.94;5034511;28;20479;-70
2021/09/20 08:04:59;;;;;;;5.07;1.90;;;;;;;14.01;83.49;101636.94;5034886;28;20818;-70
2021/09/20 08:07:25;;;;;;;1.90;1.43;;;;;;;14.06;84.62;101626.75;5034884;28;20454;-69
2021/09/20 08:09:51;;;;;;;2.17;1.20;;;;;;;14.17;86.33;101635.59;5034795;28;20826;-68
2021/09/20 08:12:18;;;;;;;2.53;1.50;;;;;;;14.30;87.56;101634.00;5034367;28;20951;-68
2021/09/20 08:14:46;;;;;;;1.70;1.13;;;;;;;14.43;86.00;101635.09;5034671;28;20470;-68
2021/09/20 08:17:12;;;;;;;3.77;1.27;;;;;;;14.46;83.33;101637.25;5034680;28;20439;-67
2021/09/20 08:19:39;;;;;;;2.77;1.33;;;;;;;14.54;81.19;101631.13;5034253;28;20944;-68
2021/09/20 08:22:06;;;;;;;1.63;1.00;;;;;;;14.57;81.92;101633.25;5034422;28;20479;-68
2021/09/20 08:24:33;;;;;;;1.40;0.97;;;;;;;14.66;81.28;101631.44;5034242;28;20956;-70
2021/09/20 08:27:00;;;;;;;3.40;1.60;;;;;;;14.75;80.28;101642.47;5034345;28;20439;-68
2021/09/20 08:29:27;;;;;;;3.60;2.00;;;;;;;14.75;80.45;101632.34;5034538;28;20435;-69
2021/09/20 08:31:55;;;;;;;1.80;1.20;;;;;;;14.78;82.40;101637.19;5034429;28;20446;-68
2021/09/20 08:34:23;;;;;;;9.07;1.60;;;;;;;14.85;80.59;101640.31;5034146;28;20439;-67
2021/09/20 08:36:49;;;;;;;2.53;1.43;;;;;;;14.95;80.54;101642.03;5034283;28;20443;-69
2021/09/20 08:39:16;;;;;;;1.97;1.53;;;;;;;15.04;80.52;101629.28;5034062;28;20444;-69
2021/09/20 08:41:43;;;;;;;3.17;1.67;;;;;;;15.20;81.78;101632.50;5034092;28;20497;-68
2021/09/20 08:44:10;;;;;;;3.30;2.03;;;;;;;15.26;77.96;101636.72;5034210;28;20505;-69
2021/09/20 08:46:38;;;;;;;4.10;1.67;;;;;;;15.19;78.00;101638.28;5034012;28;20474;-69
2021/09/20 08:49:07;;;;;;;1.23;1.10;;;;;;;15.21;78.87;101633.31;5033201;28;20955;-68
2021/09/20 08:51:33;;;;;;;1.07;0.80;;;;;;;15.32;80.18;101635.50;5033426;28;20450;-69
2021/09/20 08:54:00;;;;;;;1.60;1.10;;;;;;;15.35;78.20;101634.88;5033310;28;20501;-70
2021/09/20 08:56:26;;;;;;;1.63;1.30;;;;;;;15.37;77.83;101637.31;5033094;28;20471;-68
2021/09/20 08:58:53;;;;;;;4.97;1.47;;;;;;;15.37;76.38;101635.41;5033149;28;20451;-68
2021/09/20 09:01:19;;;;;;;3.30;1.33;;;;;;;15.37;76.08;101637.31;5033240;28;20443;-68
2021/09/20 09:03:46;;;;;;;1.90;1.63;;;;;;;15.37;77.18;101638.13;5033114;28;20487;-67
2021/09/20 09:06:28;;;;;;;2.40;1.50;;;;;;;15.45;77.99;101635.75;5032783;28;20459;-68
2021/09/20 09:08:55;;;;;;;5.23;3.03;;;;;;;15.47;77.78;101637.09;5032828;28;20419;-68
2021/09/20 09:11:21;;;;;;;3.73;1.63;;;;;;;15.50;77.79;101641.94;5032775;28;20936;-67
2021/09/20 09:13:49;;;;;;;1.40;1.07;;;;;;;15.56;78.63;101646.16;5032895;28;20565;-69
2021/09/20 09:16:24;;;;;;;2.10;1.37;;;;;;;15.67;77.68;101640.47;5032676;28;20984;-68
2021/09/20 09:19:06;;;;;;;1.37;0.80;;;;;;;15.71;75.46;101636.81;5032679;28;20932;-68
2021/09/20 09:21:36;;;;;;;3.90;1.80;;;;;;;15.71;72.33;101642.28;5032972;28;20511;-67
2021/09/20 09:24:05;;;;;;;3.27;1.27;;;;;;;15.78;72.32;101642.66;5033522;28;20488;-69
2021/09/20 09:26:33;;;;;;;1.80;1.10;;;;;;;15.80;70.77;101651.34;5033109;28;20980;-69
2021/09/20 09:29:11;;;;;;;3.00;1.10;;;;;;;15.90;73.27;101650.31;5033170;28;20450;-69
2021/09/20 09:31:39;;;;;;;1.50;1.30;;;;;;;15.90;70.88;101644.84;5033085;28;20926;-69
2021/09/20 09:34:18;;;;;;;1.20;1.03;;;;;;;15.96;69.98;101651.00;5033297;28;20855;-69
2021/09/20 09:36:46;;;;;;;2.13;1.23;;;;;;;16.07;70.65;101638.66;5032911;28;20466;-68
2021/09/20 09:39:13;;;;;;;2.57;1.33;;;;;;;16.06;68.78;101642.53;5033267;28;20447;-69
2021/09/20 09:41:42;;;;;;;1.73;0.87;;;;;;;16.17;65.50;101643.91;5033367;28;20443;-69
2021/09/20 09:44:12;;;;;;;4.63;1.67;;;;;;;16.18;64.78;101644.72;5033194;28;20509;-69
2021/09/20 09:46:40;;;;;;;1.50;1.00;;;;;;;16.04;67.01;101640.13;5033145;28;20467;-68
2021/09/20 09:49:14;;;;;;;2.10;1.57;;;;;;;16.07;67.69;101639.50;5033142;28;20440;-68
2021/09/20 09:52:01;;;;;;;2.77;1.50;;;;;;;16.20;65.73;101646.00;5033136;28;20443;-70
2021/09/20 09:54:30;;;;;;;1.57;1.00;;;;;;;16.25;64.32;101648.63;5033135;28;20427;-67
2021/09/20 09:57:15;;;;;;;1.60;1.10;;;;;;;16.44;64.25;101650.31;5033093;28;20474;-68
2021/09/20 09:59:42;;;;;;;3.27;1.17;;;;;;;16.54;66.60;101661.78;5033062;28;20443;-68
2021/09/20 10:02:22;;;;;;;1.87;1.50;;;;;;;16.80;64.66;101653.72;5032614;28;20493;-69
2021/09/20 10:04:56;;;;;;;1.50;1.07;;;;;;;17.02;62.65;101649.28;5032932;28;20550;-70
2021/09/20 10:07:26;;;;;;;4.37;1.50;;;;;;;17.20;61.22;101652.84;5034336;28;20951;-69
2021/09/20 10:09:54;;;;;;;7.40;1.77;;;;;;;17.19;62.80;101641.09;5036804;28;20439;-69
2021/09/20 10:12:24;;;;;;;1.97;0.90;;;;;;;17.12;63.01;101647.03;5036968;28;20439;-69
2021/09/20 10:14:52;;;;;;;2.20;1.13;;;;;;;17.15;64.12;101645.59;5036901;28;20462;-68
2021/09/20 10:17:19;;;;;;;1.77;1.40;;;;;;;17.22;61.89;101645.94;5037705;28;20451;-68
2021/09/20 10:19:47;;;;;;;1.27;1.00;;;;;;;17.15;60.29;101645.59;5036890;28;20447;-69
2021/09/20 10:22:15;;;;;;;2.27;1.40;;;;;;;17.18;61.13;101649.59;5036967;28;20486;-69
2021/09/20 10:24:44;;;;;;;1.57;1.20;;;;;;;17.16;62.83;101647.19;5036764;28;20789;-69
2021/09/20 10:27:12;;;;;;;1.67;1.30;;;;;;;17.15;63.83;101651.88;5036556;28;20442;-69
2021/09/20 10:29:40;;;;;;;2.17;1.20;;;;;;;17.17;65.28;101648.81;5036743;28;20507;-70
2021/09/20 10:32:08;;;;;;;4.70;1.90;;;;;;;17.20;66.98;101653.66;5036709;28;20520;-68
2021/09/20 10:34:34;;;;;;;4.43;1.67;;;;;;;17.09;66.14;101652.34;5036693;28;20442;-70
2021/09/20 10:37:04;;;;;;;4.23;1.57;;;;;;;17.04;67.56;101652.47;5035896;28;20442;-70
2021/09/20 10:39:53;;;;;;;2.20;1.20;;;;;;;16.99;66.85;101647.97;5016817;28;20451;-70
2021/09/20 10:42:49;;;;;;;5.03;1.70;;;;;;;16.80;65.48;101648.25;5016228;28;20451;-69
2021/09/20 10:45:52;;;;;;;1.30;1.10;;;;;;;16.73;66.50;101655.28;5016623;28;20468;-69
2021/09/20 10:48:43;;;;;;;5.33;1.30;;;;;;;16.86;66.68;101657.91;5016691;28;20939;-69
2021/09/20 10:51:19;;;;;;;3.83;1.43;;;;;;;16.92;66.91;101649.56;5013769;28;20455;-69
2021/09/20 10:54:04;;;;;;;1.60;1.13;;;;;;;16.89;68.02;101646.34;5016560;28;20591;-70
2021/09/20 10:56:34;;;;;;;2.50;1.40;;;;;;;16.86;67.49;101649.69;5003518;28;20468;-69
2021/09/20 10:59:19;;;;;;;4.30;1.67;;;;;;;16.78;67.43;101655.16;5016543;28;20847;-69
2021/09/20 11:01:56;;;;;;;1.90;1.07;;;;;;;16.74;68.75;101652.25;5016368;28;20438;-69
2021/09/20 11:04:28;;;;;;;3.27;1.53;;;;;;;16.73;68.14;101653.34;5016204;28;20504;-70
2021/09/20 11:07:08;;;;;;;2.70;1.43;;;;;;;16.68;68.95;101649.94;5016379;28;20466;-69
2021/09/20 11:09:47;;;;;;;2.20;1.50;;;;;;;16.58;69.16;101656.50;5015967;28;20928;-70
2021/09/20 11:12:18;;;;;;;3.60;1.50;;;;;;;16.55;71.71;101652.44;5016723;28;20845;-69
2021/09/20 11:14:49;;;;;;;2.07;1.57;;;;;;;16.40;72.57;101653.66;5016033;28;20898;-69
2021/09/20 11:17:28;;;;;;;5.03;1.37;;;;;;;16.36;73.41;101646.41;5015990;28;20456;-69
2021/09/20 11:19:58;;;;;;;4.67;1.70;;;;;;;16.30;75.91;101643.00;5015120;28;20440;-69
2021/09/20 11:22:27;;;;;;;2.30;1.33;;;;;;;16.28;76.04;101645.22;5016209;28;20444;-72
2021/09/20 11:25:02;;;;;;;2.03;1.10;;;;;;;16.24;75.91;101644.25;5015487;28;21004;-71
2021/09/20 11:27:32;;;;;;;1.53;1.10;;;;;;;16.23;77.24;101650.84;5015644;28;20498;-68